Terminal Aerodrome Forecast
Issued by NWS

Current Version | Previous Version | Text Only | Print | Product List | Glossary Off
Versions: 1 2 3 4 5 6 7 8 9 10 11 12 13 14 15 16

740
FTUS41 KPBZ 210538
TAFMGW
TAF
KMGW 210538Z 2106/2206 16003KT P6SM OVC025
     FM210900 32004KT P6SM OVC015
     FM211700 32005KT P6SM BKN025
     FM211900 32005KT P6SM BKN035=

USA.gov is the U.S. government's official web portal to all federal, state and local government web resources and services.